sensor_id;sensor_type;location;lat;lon;timestamp;temperature;humidity
12329;DHT22;6230;52.390;10.256;2022-08-19T00:00:21;25.20;61.10
12329;DHT22;6230;52.390;10.256;2022-08-19T00:02:47;25.20;61.20
12329;DHT22;6230;52.390;10.256;2022-08-19T00:05:14;25.20;61.10
12329;DHT22;6230;52.390;10.256;2022-08-19T00:07:41;25.10;61.10
12329;DHT22;6230;52.390;10.256;2022-08-19T00:10:10;25.10;61.20
12329;DHT22;6230;52.390;10.256;2022-08-19T00:12:36;25.10;61.20
12329;DHT22;6230;52.390;10.256;2022-08-19T00:15:04;25.10;61.20
12329;DHT22;6230;52.390;10.256;2022-08-19T00:17:30;25.00;61.20
12329;DHT22;6230;52.390;10.256;2022-08-19T00:19:55;25.00;61.30
12329;DHT22;6230;52.390;10.256;2022-08-19T00:22:21;25.00;61.30
12329;DHT22;6230;52.390;10.256;2022-08-19T00:24:47;24.90;61.30
12329;DHT22;6230;52.390;10.256;2022-08-19T00:27:13;24.90;61.40
12329;DHT22;6230;52.390;10.256;2022-08-19T00:29:38;24.90;61.40
12329;DHT22;6230;52.390;10.256;2022-08-19T00:32:05;24.90;61.40
12329;DHT22;6230;52.390;10.256;2022-08-19T00:34:30;24.90;61.40
12329;DHT22;6230;52.390;10.256;2022-08-19T00:36:56;24.90;61.40
12329;DHT22;6230;52.390;10.256;2022-08-19T00:39:22;24.90;61.40
12329;DHT22;6230;52.390;10.256;2022-08-19T00:41:49;24.80;61.40
12329;DHT22;6230;52.390;10.256;2022-08-19T00:44:19;24.80;61.50
12329;DHT22;6230;52.390;10.256;2022-08-19T00:46:47;24.80;61.60
12329;DHT22;6230;52.390;10.256;2022-08-19T00:49:24;24.70;61.50
12329;DHT22;6230;52.390;10.256;2022-08-19T00:51:57;24.70;61.60
12329;DHT22;6230;52.390;10.256;2022-08-19T00:54:24;24.70;61.60
12329;DHT22;6230;52.390;10.256;2022-08-19T00:56:50;24.70;61.60
12329;DHT22;6230;52.390;10.256;2022-08-19T00:59:16;24.60;61.60
12329;DHT22;6230;52.390;10.256;2022-08-19T01:01:44;24.60;61.70
12329;DHT22;6230;52.390;10.256;2022-08-19T01:04:11;24.70;61.80
12329;DHT22;6230;52.390;10.256;2022-08-19T01:06:38;24.70;61.80
12329;DHT22;6230;52.390;10.256;2022-08-19T01:09:04;24.70;61.80
12329;DHT22;6230;52.390;10.256;2022-08-19T01:11:33;24.70;61.70
12329;DHT22;6230;52.390;10.256;2022-08-19T01:13:59;24.70;61.70
12329;DHT22;6230;52.390;10.256;2022-08-19T01:16:27;24.70;61.60
12329;DHT22;6230;52.390;10.256;2022-08-19T01:18:53;24.60;61.60
12329;DHT22;6230;52.390;10.256;2022-08-19T01:21:34;24.60;61.70
12329;DHT22;6230;52.390;10.256;2022-08-19T01:24:03;24.60;61.80
12329;DHT22;6230;52.390;10.256;2022-08-19T01:26:29;24.60;61.60
12329;DHT22;6230;52.390;10.256;2022-08-19T01:28:57;24.60;61.70
12329;DHT22;6230;52.390;10.256;2022-08-19T01:31:25;24.70;61.90
12329;DHT22;6230;52.390;10.256;2022-08-19T01:33:53;24.60;61.70
12329;DHT22;6230;52.390;10.256;2022-08-19T01:36:29;24.60;61.60
12329;DHT22;6230;52.390;10.256;2022-08-19T01:38:55;24.60;61.70
12329;DHT22;6230;52.390;10.256;2022-08-19T01:41:21;24.60;61.70
12329;DHT22;6230;52.390;10.256;2022-08-19T01:43:47;24.50;61.70
12329;DHT22;6230;52.390;10.256;2022-08-19T01:46:12;24.50;61.90
12329;DHT22;6230;52.390;10.256;2022-08-19T01:48:40;24.50;61.90
12329;DHT22;6230;52.390;10.256;2022-08-19T01:51:08;24.50;62.00
12329;DHT22;6230;52.390;10.256;2022-08-19T01:53:34;24.50;62.10
12329;DHT22;6230;52.390;10.256;2022-08-19T01:56:00;24.40;62.10
12329;DHT22;6230;52.390;10.256;2022-08-19T01:58:31;24.40;62.20
12329;DHT22;6230;52.390;10.256;2022-08-19T02:00:58;24.50;62.20
12329;DHT22;6230;52.390;10.256;2022-08-19T02:03:24;24.30;62.10
12329;DHT22;6230;52.390;10.256;2022-08-19T02:05:55;24.30;62.30
12329;DHT22;6230;52.390;10.256;2022-08-19T02:08:20;24.40;62.40
12329;DHT22;6230;52.390;10.256;2022-08-19T02:10:46;24.30;62.30
12329;DHT22;6230;52.390;10.256;2022-08-19T02:13:12;24.30;62.20
12329;DHT22;6230;52.390;10.256;2022-08-19T02:15:38;24.30;62.20
12329;DHT22;6230;52.390;10.256;2022-08-19T02:18:04;24.30;62.30
12329;DHT22;6230;52.390;10.256;2022-08-19T02:20:30;24.20;62.20
12329;DHT22;6230;52.390;10.256;2022-08-19T02:22:56;24.20;62.30
12329;DHT22;6230;52.390;10.256;2022-08-19T02:25:21;24.10;62.30
12329;DHT22;6230;52.390;10.256;2022-08-19T02:27:47;24.10;62.40
12329;DHT22;6230;52.390;10.256;2022-08-19T02:30:15;24.10;62.60
12329;DHT22;6230;52.390;10.256;2022-08-19T02:32:41;24.00;62.60
12329;DHT22;6230;52.390;10.256;2022-08-19T02:35:07;24.00;62.80
12329;DHT22;6230;52.390;10.256;2022-08-19T02:37:34;24.00;62.80
12329;DHT22;6230;52.390;10.256;2022-08-19T02:40:18;24.00;62.80
12329;DHT22;6230;52.390;10.256;2022-08-19T02:42:44;24.00;62.90
12329;DHT22;6230;52.390;10.256;2022-08-19T02:45:11;24.00;62.90
12329;DHT22;6230;52.390;10.256;2022-08-19T02:47:37;23.90;62.90
12329;DHT22;6230;52.390;10.256;2022-08-19T02:50:03;23.90;63.80
12329;DHT22;6230;52.390;10.256;2022-08-19T02:52:29;23.90;62.90
12329;DHT22;6230;52.390;10.256;2022-08-19T02:54:56;23.90;63.00
12329;DHT22;6230;52.390;10.256;2022-08-19T02:57:23;24.00;62.90
12329;DHT22;6230;52.390;10.256;2022-08-19T02:59:49;23.90;62.90
12329;DHT22;6230;52.390;10.256;2022-08-19T03:02:15;23.90;62.90
12329;DHT22;6230;52.390;10.256;2022-08-19T03:04:41;23.90;62.90
12329;DHT22;6230;52.390;10.256;2022-08-19T03:07:08;23.90;63.00
12329;DHT22;6230;52.390;10.256;2022-08-19T03:09:37;23.90;63.00
12329;DHT22;6230;52.390;10.256;2022-08-19T03:12:04;23.90;63.00
12329;DHT22;6230;52.390;10.256;2022-08-19T03:14:31;23.90;63.10
12329;DHT22;6230;52.390;10.256;2022-08-19T03:16:57;23.90;63.10
12329;DHT22;6230;52.390;10.256;2022-08-19T03:19:23;23.80;63.00
12329;DHT22;6230;52.390;10.256;2022-08-19T03:21:49;23.80;63.00
12329;DHT22;6230;52.390;10.256;2022-08-19T03:24:16;23.80;63.00
12329;DHT22;6230;52.390;10.256;2022-08-19T03:26:49;23.80;63.00
12329;DHT22;6230;52.390;10.256;2022-08-19T03:29:15;23.80;63.20
12329;DHT22;6230;52.390;10.256;2022-08-19T03:31:42;23.70;63.00
12329;DHT22;6230;52.390;10.256;2022-08-19T03:34:09;23.70;63.10
12329;DHT22;6230;52.390;10.256;2022-08-19T03:36:37;23.70;63.30
12329;DHT22;6230;52.390;10.256;2022-08-19T03:39:03;23.70;63.30
12329;DHT22;6230;52.390;10.256;2022-08-19T03:41:32;23.70;63.20
12329;DHT22;6230;52.390;10.256;2022-08-19T03:43:58;23.70;63.30
12329;DHT22;6230;52.390;10.256;2022-08-19T03:46:28;23.60;63.20
12329;DHT22;6230;52.390;10.256;2022-08-19T03:48:56;23.60;63.30
12329;DHT22;6230;52.390;10.256;2022-08-19T03:51:27;23.60;63.30
12329;DHT22;6230;52.390;10.256;2022-08-19T03:53:54;23.60;63.20
12329;DHT22;6230;52.390;10.256;2022-08-19T03:56:20;23.60;63.20
12329;DHT22;6230;52.390;10.256;2022-08-19T03:58:46;23.60;63.20
12329;DHT22;6230;52.390;10.256;2022-08-19T04:01:14;23.50;63.20
12329;DHT22;6230;52.390;10.256;2022-08-19T04:03:41;23.50;63.30
12329;DHT22;6230;52.390;10.256;2022-08-19T04:06:19;23.50;63.30
12329;DHT22;6230;52.390;10.256;2022-08-19T04:08:47;23.50;63.40
12329;DHT22;6230;52.390;10.256;2022-08-19T04:11:15;23.50;63.20
12329;DHT22;6230;52.390;10.256;2022-08-19T04:13:42;23.50;63.30
12329;DHT22;6230;52.390;10.256;2022-08-19T04:16:10;23.50;63.30
12329;DHT22;6230;52.390;10.256;2022-08-19T04:18:38;23.50;63.30
12329;DHT22;6230;52.390;10.256;2022-08-19T04:21:05;23.50;63.30
12329;DHT22;6230;52.390;10.256;2022-08-19T04:23:32;23.50;63.30
12329;DHT22;6230;52.390;10.256;2022-08-19T04:25:58;23.50;63.30
12329;DHT22;6230;52.390;10.256;2022-08-19T04:28:24;23.50;63.20
12329;DHT22;6230;52.390;10.256;2022-08-19T04:30:52;23.50;63.20
12329;DHT22;6230;52.390;10.256;2022-08-19T04:33:24;23.50;63.20
12329;DHT22;6230;52.390;10.256;2022-08-19T04:35:51;23.50;63.20
12329;DHT22;6230;52.390;10.256;2022-08-19T04:38:19;23.50;63.20
12329;DHT22;6230;52.390;10.256;2022-08-19T04:40:47;23.50;63.20
12329;DHT22;6230;52.390;10.256;2022-08-19T04:43:33;23.50;63.20
12329;DHT22;6230;52.390;10.256;2022-08-19T04:46:05;23.50;63.20
12329;DHT22;6230;52.390;10.256;2022-08-19T04:48:31;23.50;63.20
12329;DHT22;6230;52.390;10.256;2022-08-19T04:50:58;23.50;63.20
12329;DHT22;6230;52.390;10.256;2022-08-19T04:53:28;23.40;63.30
12329;DHT22;6230;52.390;10.256;2022-08-19T04:55:58;23.40;63.40
12329;DHT22;6230;52.390;10.256;2022-08-19T04:58:26;23.40;63.40
12329;DHT22;6230;52.390;10.256;2022-08-19T05:00:53;23.40;63.50
12329;DHT22;6230;52.390;10.256;2022-08-19T05:03:19;23.40;63.50
12329;DHT22;6230;52.390;10.256;2022-08-19T05:05:47;23.40;63.60
12329;DHT22;6230;52.390;10.256;2022-08-19T05:08:19;23.40;63.60
12329;DHT22;6230;52.390;10.256;2022-08-19T05:10:47;23.40;63.60
12329;DHT22;6230;52.390;10.256;2022-08-19T05:13:14;23.40;63.60
12329;DHT22;6230;52.390;10.256;2022-08-19T05:15:40;23.40;63.60
12329;DHT22;6230;52.390;10.256;2022-08-19T05:18:06;23.40;63.60
12329;DHT22;6230;52.390;10.256;2022-08-19T05:20:50;23.30;63.70
12329;DHT22;6230;52.390;10.256;2022-08-19T05:23:34;23.30;63.80
12329;DHT22;6230;52.390;10.256;2022-08-19T05:25:59;23.30;63.90
12329;DHT22;6230;52.390;10.256;2022-08-19T05:28:26;23.20;63.90
12329;DHT22;6230;52.390;10.256;2022-08-19T05:30:53;23.20;64.00
12329;DHT22;6230;52.390;10.256;2022-08-19T05:33:21;23.20;64.10
12329;DHT22;6230;52.390;10.256;2022-08-19T05:35:47;23.20;64.00
12329;DHT22;6230;52.390;10.256;2022-08-19T05:38:15;23.20;64.10
12329;DHT22;6230;52.390;10.256;2022-08-19T05:40:41;23.20;64.10
12329;DHT22;6230;52.390;10.256;2022-08-19T05:43:08;23.20;64.10
12329;DHT22;6230;52.390;10.256;2022-08-19T05:45:39;23.20;64.10
12329;DHT22;6230;52.390;10.256;2022-08-19T05:48:05;23.30;64.20
12329;DHT22;6230;52.390;10.256;2022-08-19T05:50:31;23.20;64.00
12329;DHT22;6230;52.390;10.256;2022-08-19T05:52:56;23.20;64.10
12329;DHT22;6230;52.390;10.256;2022-08-19T05:55:22;23.20;64.00
12329;DHT22;6230;52.390;10.256;2022-08-19T05:57:48;23.20;64.00
12329;DHT22;6230;52.390;10.256;2022-08-19T06:00:14;23.20;64.00
12329;DHT22;6230;52.390;10.256;2022-08-19T06:02:41;23.20;64.00
12329;DHT22;6230;52.390;10.256;2022-08-19T06:05:07;23.20;64.00
12329;DHT22;6230;52.390;10.256;2022-08-19T06:07:35;23.20;64.20
12329;DHT22;6230;52.390;10.256;2022-08-19T06:10:01;23.20;64.20
12329;DHT22;6230;52.390;10.256;2022-08-19T06:12:28;23.20;64.10
12329;DHT22;6230;52.390;10.256;2022-08-19T06:14:56;23.30;64.00
12329;DHT22;6230;52.390;10.256;2022-08-19T06:17:22;23.30;63.90
12329;DHT22;6230;52.390;10.256;2022-08-19T06:19:50;23.30;63.80
12329;DHT22;6230;52.390;10.256;2022-08-19T06:22:16;23.40;63.80
12329;DHT22;6230;52.390;10.256;2022-08-19T06:24:42;23.40;63.60
12329;DHT22;6230;52.390;10.256;2022-08-19T06:27:08;23.40;63.40
12329;DHT22;6230;52.390;10.256;2022-08-19T06:29:34;23.40;63.30
12329;DHT22;6230;52.390;10.256;2022-08-19T06:32:02;23.40;63.20
12329;DHT22;6230;52.390;10.256;2022-08-19T06:34:30;23.40;63.10
12329;DHT22;6230;52.390;10.256;2022-08-19T06:36:58;23.40;63.10
12329;DHT22;6230;52.390;10.256;2022-08-19T06:39:28;23.40;63.10
12329;DHT22;6230;52.390;10.256;2022-08-19T06:41:56;23.40;63.10
12329;DHT22;6230;52.390;10.256;2022-08-19T06:44:26;23.40;63.10
12329;DHT22;6230;52.390;10.256;2022-08-19T06:46:53;23.40;63.00
12329;DHT22;6230;52.390;10.256;2022-08-19T06:49:18;23.40;63.10
12329;DHT22;6230;52.390;10.256;2022-08-19T06:51:46;23.40;63.10
12329;DHT22;6230;52.390;10.256;2022-08-19T06:54:18;23.40;63.10
12329;DHT22;6230;52.390;10.256;2022-08-19T06:56:44;23.40;63.00
12329;DHT22;6230;52.390;10.256;2022-08-19T06:59:13;23.40;63.00
12329;DHT22;6230;52.390;10.256;2022-08-19T07:01:45;23.40;62.90
12329;DHT22;6230;52.390;10.256;2022-08-19T07:04:13;23.40;62.90
12329;DHT22;6230;52.390;10.256;2022-08-19T07:06:39;23.40;62.90
12329;DHT22;6230;52.390;10.256;2022-08-19T07:09:06;23.40;62.90
12329;DHT22;6230;52.390;10.256;2022-08-19T07:11:32;23.40;62.80
12329;DHT22;6230;52.390;10.256;2022-08-19T07:13:58;23.40;62.70
12329;DHT22;6230;52.390;10.256;2022-08-19T07:16:24;23.40;62.70
12329;DHT22;6230;52.390;10.256;2022-08-19T07:18:50;23.40;62.60
12329;DHT22;6230;52.390;10.256;2022-08-19T07:21:22;23.40;62.80
12329;DHT22;6230;52.390;10.256;2022-08-19T07:23:50;23.40;62.80
12329;DHT22;6230;52.390;10.256;2022-08-19T07:26:31;23.40;62.70
12329;DHT22;6230;52.390;10.256;2022-08-19T07:28:58;23.40;62.60
12329;DHT22;6230;52.390;10.256;2022-08-19T07:31:26;23.40;62.50
12329;DHT22;6230;52.390;10.256;2022-08-19T07:33:54;23.40;62.40
12329;DHT22;6230;52.390;10.256;2022-08-19T07:36:24;23.50;62.50
12329;DHT22;6230;52.390;10.256;2022-08-19T07:38:51;23.50;62.50
12329;DHT22;6230;52.390;10.256;2022-08-19T07:41:22;23.50;62.40
12329;DHT22;6230;52.390;10.256;2022-08-19T07:43:48;23.50;62.40
12329;DHT22;6230;52.390;10.256;2022-08-19T07:46:14;23.50;62.30
12329;DHT22;6230;52.390;10.256;2022-08-19T07:48:42;23.50;62.30
12329;DHT22;6230;52.390;10.256;2022-08-19T07:51:13;23.60;62.40
12329;DHT22;6230;52.390;10.256;2022-08-19T07:53:39;23.60;62.20
12329;DHT22;6230;52.390;10.256;2022-08-19T07:56:05;23.60;62.90
12329;DHT22;6230;52.390;10.256;2022-08-19T07:58:36;23.70;62.00
12329;DHT22;6230;52.390;10.256;2022-08-19T08:01:04;23.60;61.80
12329;DHT22;6230;52.390;10.256;2022-08-19T08:03:30;23.60;61.80
12329;DHT22;6230;52.390;10.256;2022-08-19T08:06:15;23.70;61.70
12329;DHT22;6230;52.390;10.256;2022-08-19T08:09:01;23.70;61.70
12329;DHT22;6230;52.390;10.256;2022-08-19T08:11:39;23.70;61.50
12329;DHT22;6230;52.390;10.256;2022-08-19T08:14:05;23.70;61.40
12329;DHT22;6230;52.390;10.256;2022-08-19T08:16:36;23.70;62.10
12329;DHT22;6230;52.390;10.256;2022-08-19T08:19:04;23.80;61.30
12329;DHT22;6230;52.390;10.256;2022-08-19T08:21:31;23.80;61.20
12329;DHT22;6230;52.390;10.256;2022-08-19T08:23:57;23.80;61.10
12329;DHT22;6230;52.390;10.256;2022-08-19T08:26:24;23.80;61.00
12329;DHT22;6230;52.390;10.256;2022-08-19T08:28:50;23.80;61.00
12329;DHT22;6230;52.390;10.256;2022-08-19T08:31:16;23.90;61.10
12329;DHT22;6230;52.390;10.256;2022-08-19T08:33:43;23.90;61.00
12329;DHT22;6230;52.390;10.256;2022-08-19T08:36:09;23.90;60.90
12329;DHT22;6230;52.390;10.256;2022-08-19T08:38:36;24.00;60.90
12329;DHT22;6230;52.390;10.256;2022-08-19T08:43:49;24.10;60.70
12329;DHT22;6230;52.390;10.256;2022-08-19T08:51:32;24.30;60.20
12329;DHT22;6230;52.390;10.256;2022-08-19T08:53:59;24.30;59.90
12329;DHT22;6230;52.390;10.256;2022-08-19T08:56:25;24.30;59.80
12329;DHT22;6230;52.390;10.256;2022-08-19T08:59:07;24.30;59.70
12329;DHT22;6230;52.390;10.256;2022-08-19T09:01:35;24.40;59.60
12329;DHT22;6230;52.390;10.256;2022-08-19T09:04:05;24.40;59.70
12329;DHT22;6230;52.390;10.256;2022-08-19T09:06:40;24.40;59.60
12329;DHT22;6230;52.390;10.256;2022-08-19T09:09:31;24.40;59.60
12329;DHT22;6230;52.390;10.256;2022-08-19T09:12:25;24.50;59.50
12329;DHT22;6230;52.390;10.256;2022-08-19T09:14:56;24.40;59.40
12329;DHT22;6230;52.390;10.256;2022-08-19T09:17:25;24.40;59.40
12329;DHT22;6230;52.390;10.256;2022-08-19T09:22:32;24.40;59.30
12329;DHT22;6230;52.390;10.256;2022-08-19T09:24:57;24.40;59.30
12329;DHT22;6230;52.390;10.256;2022-08-19T09:27:24;24.40;59.20
12329;DHT22;6230;52.390;10.256;2022-08-19T09:29:51;24.40;59.20
12329;DHT22;6230;52.390;10.256;2022-08-19T09:32:17;24.30;59.20
12329;DHT22;6230;52.390;10.256;2022-08-19T09:34:43;24.30;59.10
12329;DHT22;6230;52.390;10.256;2022-08-19T09:37:09;24.30;59.10
12329;DHT22;6230;52.390;10.256;2022-08-19T09:39:35;24.30;59.10
12329;DHT22;6230;52.390;10.256;2022-08-19T09:42:00;24.30;59.20
12329;DHT22;6230;52.390;10.256;2022-08-19T09:44:29;24.30;59.10
12329;DHT22;6230;52.390;10.256;2022-08-19T09:46:54;24.30;59.10
12329;DHT22;6230;52.390;10.256;2022-08-19T09:49:21;24.30;59.10
12329;DHT22;6230;52.390;10.256;2022-08-19T09:51:50;24.30;59.00
12329;DHT22;6230;52.390;10.256;2022-08-19T09:54:16;24.30;59.00
12329;DHT22;6230;52.390;10.256;2022-08-19T09:56:42;24.30;59.10
12329;DHT22;6230;52.390;10.256;2022-08-19T09:59:08;24.40;59.00
12329;DHT22;6230;52.390;10.256;2022-08-19T10:01:34;24.40;58.90
12329;DHT22;6230;52.390;10.256;2022-08-19T10:04:00;24.40;58.90
12329;DHT22;6230;52.390;10.256;2022-08-19T10:06:29;24.40;58.90
12329;DHT22;6230;52.390;10.256;2022-08-19T10:08:59;24.40;58.90
12329;DHT22;6230;52.390;10.256;2022-08-19T10:11:25;24.40;59.00
12329;DHT22;6230;52.390;10.256;2022-08-19T10:13:52;24.50;59.00
12329;DHT22;6230;52.390;10.256;2022-08-19T10:16:20;24.60;58.90
12329;DHT22;6230;52.390;10.256;2022-08-19T10:18:47;24.70;58.80
12329;DHT22;6230;52.390;10.256;2022-08-19T10:21:19;24.70;58.70
12329;DHT22;6230;52.390;10.256;2022-08-19T10:23:48;24.80;58.60
12329;DHT22;6230;52.390;10.256;2022-08-19T10:26:17;24.90;58.60
12329;DHT22;6230;52.390;10.256;2022-08-19T10:28:43;25.00;58.60
12329;DHT22;6230;52.390;10.256;2022-08-19T10:31:20;25.20;58.60
12329;DHT22;6230;52.390;10.256;2022-08-19T10:33:47;25.40;58.50
12329;DHT22;6230;52.390;10.256;2022-08-19T10:36:21;25.50;58.30
12329;DHT22;6230;52.390;10.256;2022-08-19T10:38:50;25.70;57.90
12329;DHT22;6230;52.390;10.256;2022-08-19T10:41:19;25.80;57.90
12329;DHT22;6230;52.390;10.256;2022-08-19T10:43:45;26.00;57.70
12329;DHT22;6230;52.390;10.256;2022-08-19T10:46:13;26.10;57.50
12329;DHT22;6230;52.390;10.256;2022-08-19T10:48:40;26.10;57.20
12329;DHT22;6230;52.390;10.256;2022-08-19T10:51:06;26.10;57.10
12329;DHT22;6230;52.390;10.256;2022-08-19T10:53:50;26.10;57.00
12329;DHT22;6230;52.390;10.256;2022-08-19T10:56:16;26.20;57.00
12329;DHT22;6230;52.390;10.256;2022-08-19T10:59:01;26.20;56.80
12329;DHT22;6230;52.390;10.256;2022-08-19T11:01:28;26.20;56.70
12329;DHT22;6230;52.390;10.256;2022-08-19T11:03:56;26.20;56.80
12329;DHT22;6230;52.390;10.256;2022-08-19T11:06:23;26.20;56.80
12329;DHT22;6230;52.390;10.256;2022-08-19T11:08:51;26.40;56.90
12329;DHT22;6230;52.390;10.256;2022-08-19T11:11:17;26.60;56.70
12329;DHT22;6230;52.390;10.256;2022-08-19T11:13:43;26.80;56.20
12329;DHT22;6230;52.390;10.256;2022-08-19T11:16:15;26.90;56.00
12329;DHT22;6230;52.390;10.256;2022-08-19T11:18:48;27.00;55.90
12329;DHT22;6230;52.390;10.256;2022-08-19T11:21:16;27.20;55.40
12329;DHT22;6230;52.390;10.256;2022-08-19T11:23:44;27.30;55.30
12329;DHT22;6230;52.390;10.256;2022-08-19T11:26:10;27.30;55.00
12329;DHT22;6230;52.390;10.256;2022-08-19T11:28:36;27.40;54.80
12329;DHT22;6230;52.390;10.256;2022-08-19T11:31:02;27.40;54.60
12329;DHT22;6230;52.390;10.256;2022-08-19T11:33:30;27.30;54.60
12329;DHT22;6230;52.390;10.256;2022-08-19T11:35:58;27.30;54.60
12329;DHT22;6230;52.390;10.256;2022-08-19T11:38:25;27.30;54.50
12329;DHT22;6230;52.390;10.256;2022-08-19T11:40:55;27.30;54.60
12329;DHT22;6230;52.390;10.256;2022-08-19T11:43:21;27.30;54.30
12329;DHT22;6230;52.390;10.256;2022-08-19T11:45:46;27.30;54.50
12329;DHT22;6230;52.390;10.256;2022-08-19T11:48:13;27.40;54.50
12329;DHT22;6230;52.390;10.256;2022-08-19T11:50:39;27.60;54.30
12329;DHT22;6230;52.390;10.256;2022-08-19T11:53:06;27.80;53.80
12329;DHT22;6230;52.390;10.256;2022-08-19T11:55:32;28.00;53.50
12329;DHT22;6230;52.390;10.256;2022-08-19T11:57:57;28.10;53.30
12329;DHT22;6230;52.390;10.256;2022-08-19T12:00:23;28.30;53.10
12329;DHT22;6230;52.390;10.256;2022-08-19T12:02:48;28.50;52.60
12329;DHT22;6230;52.390;10.256;2022-08-19T12:05:14;28.70;52.30
12329;DHT22;6230;52.390;10.256;2022-08-19T12:07:40;28.80;52.00
12329;DHT22;6230;52.390;10.256;2022-08-19T12:10:06;29.00;51.60
12329;DHT22;6230;52.390;10.256;2022-08-19T12:12:32;29.10;51.40
12329;DHT22;6230;52.390;10.256;2022-08-19T12:14:58;29.20;51.00
12329;DHT22;6230;52.390;10.256;2022-08-19T12:17:25;29.30;51.00
12329;DHT22;6230;52.390;10.256;2022-08-19T12:19:52;29.40;50.50
12329;DHT22;6230;52.390;10.256;2022-08-19T12:22:17;29.50;50.30
12329;DHT22;6230;52.390;10.256;2022-08-19T12:24:43;29.60;49.80
12329;DHT22;6230;52.390;10.256;2022-08-19T12:27:09;29.70;49.70
12329;DHT22;6230;52.390;10.256;2022-08-19T12:29:34;29.80;49.70
12329;DHT22;6230;52.390;10.256;2022-08-19T12:32:00;29.90;49.50
12329;DHT22;6230;52.390;10.256;2022-08-19T12:34:29;30.10;49.20
12329;DHT22;6230;52.390;10.256;2022-08-19T12:37:00;30.20;49.00
12329;DHT22;6230;52.390;10.256;2022-08-19T12:39:26;30.30;48.80
12329;DHT22;6230;52.390;10.256;2022-08-19T12:41:52;30.30;48.60
12329;DHT22;6230;52.390;10.256;2022-08-19T12:44:18;30.30;48.60
12329;DHT22;6230;52.390;10.256;2022-08-19T12:46:43;30.30;48.60
12329;DHT22;6230;52.390;10.256;2022-08-19T12:49:09;30.30;48.50
12329;DHT22;6230;52.390;10.256;2022-08-19T12:51:35;30.30;48.30
12329;DHT22;6230;52.390;10.256;2022-08-19T12:54:01;30.40;48.10
12329;DHT22;6230;52.390;10.256;2022-08-19T12:56:27;30.50;47.90
12329;DHT22;6230;52.390;10.256;2022-08-19T12:58:52;30.60;47.70
12329;DHT22;6230;52.390;10.256;2022-08-19T13:01:18;30.60;47.50
12329;DHT22;6230;52.390;10.256;2022-08-19T13:03:45;30.50;47.50
12329;DHT22;6230;52.390;10.256;2022-08-19T13:06:12;30.50;47.60
12329;DHT22;6230;52.390;10.256;2022-08-19T13:08:38;30.40;47.70
12329;DHT22;6230;52.390;10.256;2022-08-19T13:11:16;30.40;47.70
12329;DHT22;6230;52.390;10.256;2022-08-19T13:13:44;30.50;47.60
12329;DHT22;6230;52.390;10.256;2022-08-19T13:16:12;30.50;47.70
12329;DHT22;6230;52.390;10.256;2022-08-19T13:18:39;30.60;47.50
12329;DHT22;6230;52.390;10.256;2022-08-19T13:21:06;30.80;47.30
12329;DHT22;6230;52.390;10.256;2022-08-19T13:23:33;30.80;47.20
12329;DHT22;6230;52.390;10.256;2022-08-19T13:26:01;30.90;46.90
12329;DHT22;6230;52.390;10.256;2022-08-19T13:28:27;31.00;46.80
12329;DHT22;6230;52.390;10.256;2022-08-19T13:31:16;31.00;46.80
12329;DHT22;6230;52.390;10.256;2022-08-19T13:34:00;31.10;46.70
12329;DHT22;6230;52.390;10.256;2022-08-19T13:36:26;31.10;46.60
12329;DHT22;6230;52.390;10.256;2022-08-19T13:38:52;31.10;46.30
12329;DHT22;6230;52.390;10.256;2022-08-19T13:41:17;31.10;46.20
12329;DHT22;6230;52.390;10.256;2022-08-19T13:43:44;31.20;46.30
12329;DHT22;6230;52.390;10.256;2022-08-19T13:46:11;31.20;46.20
12329;DHT22;6230;52.390;10.256;2022-08-19T13:48:40;31.20;46.30
12329;DHT22;6230;52.390;10.256;2022-08-19T13:51:09;31.20;46.30
12329;DHT22;6230;52.390;10.256;2022-08-19T13:53:39;31.40;46.50
12329;DHT22;6230;52.390;10.256;2022-08-19T13:56:06;31.50;46.10
12329;DHT22;6230;52.390;10.256;2022-08-19T13:58:32;31.60;45.80
12329;DHT22;6230;52.390;10.256;2022-08-19T14:00:58;31.60;45.50
12329;DHT22;6230;52.390;10.256;2022-08-19T14:03:25;31.60;45.30
12329;DHT22;6230;52.390;10.256;2022-08-19T14:05:50;31.50;45.40
12329;DHT22;6230;52.390;10.256;2022-08-19T14:08:16;31.50;45.50
12329;DHT22;6230;52.390;10.256;2022-08-19T14:10:42;31.50;45.20
12329;DHT22;6230;52.390;10.256;2022-08-19T14:13:12;31.50;45.20
12329;DHT22;6230;52.390;10.256;2022-08-19T14:15:38;31.50;45.10
12329;DHT22;6230;52.390;10.256;2022-08-19T14:18:03;31.50;45.10
12329;DHT22;6230;52.390;10.256;2022-08-19T14:20:29;31.50;44.90
12329;DHT22;6230;52.390;10.256;2022-08-19T14:22:55;31.50;44.80
12329;DHT22;6230;52.390;10.256;2022-08-19T14:25:26;31.60;44.90
12329;DHT22;6230;52.390;10.256;2022-08-19T14:27:52;31.60;44.80
12329;DHT22;6230;52.390;10.256;2022-08-19T14:30:22;31.60;44.70
12329;DHT22;6230;52.390;10.256;2022-08-19T14:32:48;31.60;44.60
12329;DHT22;6230;52.390;10.256;2022-08-19T14:35:14;31.60;44.60
12329;DHT22;6230;52.390;10.256;2022-08-19T14:37:42;31.60;44.70
12329;DHT22;6230;52.390;10.256;2022-08-19T14:40:08;31.70;44.60
12329;DHT22;6230;52.390;10.256;2022-08-19T14:42:34;31.70;44.50
12329;DHT22;6230;52.390;10.256;2022-08-19T14:45:00;31.70;44.60
12329;DHT22;6230;52.390;10.256;2022-08-19T14:47:26;31.70;44.50
12329;DHT22;6230;52.390;10.256;2022-08-19T14:49:53;31.70;44.40
12329;DHT22;6230;52.390;10.256;2022-08-19T14:52:19;31.70;44.40
12329;DHT22;6230;52.390;10.256;2022-08-19T14:54:44;31.70;44.10
12329;DHT22;6230;52.390;10.256;2022-08-19T14:57:14;31.70;43.90
12329;DHT22;6230;52.390;10.256;2022-08-19T14:59:46;31.70;44.20
12329;DHT22;6230;52.390;10.256;2022-08-19T15:02:12;31.70;44.10
12329;DHT22;6230;52.390;10.256;2022-08-19T15:04:38;31.50;44.20
12329;DHT22;6230;52.390;10.256;2022-08-19T15:07:04;31.50;44.20
12329;DHT22;6230;52.390;10.256;2022-08-19T15:09:31;31.40;44.20
12329;DHT22;6230;52.390;10.256;2022-08-19T15:11:57;31.30;44.00
12329;DHT22;6230;52.390;10.256;2022-08-19T15:14:26;31.20;44.10
12329;DHT22;6230;52.390;10.256;2022-08-19T15:16:51;31.10;44.30
12329;DHT22;6230;52.390;10.256;2022-08-19T15:19:17;31.00;44.50
12329;DHT22;6230;52.390;10.256;2022-08-19T15:21:43;30.90;44.60
12329;DHT22;6230;52.390;10.256;2022-08-19T15:24:08;30.80;44.80
12329;DHT22;6230;52.390;10.256;2022-08-19T15:26:34;30.60;44.80
12329;DHT22;6230;52.390;10.256;2022-08-19T15:29:01;30.50;45.00
12329;DHT22;6230;52.390;10.256;2022-08-19T15:31:27;30.40;45.10
12329;DHT22;6230;52.390;10.256;2022-08-19T15:33:53;30.30;45.40
12329;DHT22;6230;52.390;10.256;2022-08-19T15:36:22;30.30;45.60
12329;DHT22;6230;52.390;10.256;2022-08-19T15:38:48;30.20;45.70
12329;DHT22;6230;52.390;10.256;2022-08-19T15:41:22;30.20;45.90
12329;DHT22;6230;52.390;10.256;2022-08-19T15:43:50;30.20;46.00